createdAt,value
2022-12-03T00:02:25.443Z,102112.03
2022-12-03T00:04:53.394Z,102112.03
2022-12-03T00:07:20.560Z,102106.91
2022-12-03T00:09:47.738Z,102102.59
2022-12-03T00:12:14.779Z,102108.63
2022-12-03T00:14:44.870Z,102104.31
2022-12-03T00:17:12.587Z,102104.22
2022-12-03T00:19:43.929Z,102099.00
2022-12-03T00:22:12.857Z,102096.59
2022-12-03T00:24:40.180Z,102095.69
2022-12-03T00:27:07.863Z,102099.25
2022-12-03T00:29:35.212Z,102094.94
2022-12-03T00:32:02.216Z,102084.53
2022-12-03T00:34:29.455Z,102090.00
2022-12-03T00:36:56.906Z,102081.19
2022-12-03T00:39:24.123Z,102081.13
2022-12-03T00:41:51.067Z,102087.13
2022-12-03T00:44:18.501Z,102080.16
2022-12-03T00:46:45.790Z,102074.94
2022-12-03T00:49:12.962Z,102074.13
2022-12-03T00:51:40.158Z,102083.72
2022-12-03T00:54:07.241Z,102077.69
2022-12-03T00:56:34.455Z,102086.31
2022-12-03T00:59:01.497Z,102075.84
2022-12-03T01:01:28.759Z,102077.63
2022-12-03T01:03:55.997Z,102077.56
2022-12-03T01:06:23.017Z,102077.63
2022-12-03T01:08:50.114Z,102081.13
2022-12-03T01:11:36.133Z,102075.09
2022-12-03T01:14:07.419Z,102082.81
2022-12-03T01:16:35.260Z,102081.03
2022-12-03T01:19:03.461Z,102080.16
2022-12-03T01:21:30.873Z,102093.25
2022-12-03T01:23:59.325Z,102091.53
2022-12-03T01:26:26.607Z,102077.63
2022-12-03T01:28:53.983Z,102081.13
2022-12-03T01:31:40.214Z,102082.97
2022-12-03T01:34:07.366Z,102082.19
2022-12-03T01:36:34.783Z,102083.06
2022-12-03T01:39:03.707Z,102081.28
2022-12-03T01:41:33.291Z,102082.19
2022-12-03T01:44:01.470Z,102084.84
2022-12-03T01:46:39.654Z,102076.97
2022-12-03T01:49:09.416Z,102074.38
2022-12-03T01:51:36.677Z,102070.88
2022-12-03T01:54:04.086Z,102070.06
2022-12-03T01:56:31.274Z,102065.75
2022-12-03T01:58:58.458Z,102070.13
2022-12-03T02:01:25.584Z,102071.91
2022-12-03T02:03:52.824Z,102072.81
2022-12-03T02:06:30.443Z,102065.75
2022-12-03T02:08:59.913Z,102062.25
2022-12-03T02:11:33.674Z,102065.75
2022-12-03T02:14:06.291Z,102060.63
2022-12-03T02:16:37.145Z,102066.72
2022-12-03T02:19:08.648Z,102068.50
2022-12-03T02:22:33.380Z,102052.88
2022-12-03T02:25:12.567Z,102066.78
2022-12-03T02:27:40.574Z,102057.19
2022-12-03T02:30:09.083Z,102060.69
2022-12-03T02:32:37.448Z,102052.00
2022-12-03T02:35:05.768Z,102052.94
2022-12-03T02:37:37.399Z,102052.94
2022-12-03T02:40:11.141Z,102050.28
2022-12-03T02:42:39.519Z,102044.31
2022-12-03T02:45:20.202Z,102045.13
2022-12-03T02:47:56.370Z,102052.88
2022-12-03T02:50:28.883Z,102042.47
2022-12-03T02:52:58.664Z,102050.34
2022-12-03T02:55:30.635Z,102047.75
2022-12-03T02:58:02.831Z,102038.09
2022-12-03T03:00:29.975Z,102043.28
2022-12-03T03:02:57.743Z,102044.94
2022-12-03T03:05:25.669Z,102042.25
2022-12-03T03:07:52.929Z,102034.59
2022-12-03T03:10:23.377Z,102038.09
2022-12-03T03:12:52.726Z,102031.16
2022-12-03T03:15:20.152Z,102033.72
2022-12-03T03:17:47.264Z,102030.22
2022-12-03T03:20:15.320Z,102018.97
2022-12-03T03:22:43.594Z,102028.44
2022-12-03T03:25:15.447Z,102027.53
2022-12-03T03:27:43.615Z,102036.25
2022-12-03T03:30:12.134Z,102031.03
2022-12-03T03:32:40.648Z,102028.50
2022-12-03T03:35:10.763Z,102027.69
2022-12-03T03:37:39.068Z,102029.38
2022-12-03T03:40:08.220Z,102025.06
2022-12-03T03:42:36.198Z,102023.28
2022-12-03T03:45:04.346Z,102027.59
2022-12-03T03:47:31.905Z,102014.59
2022-12-03T03:49:59.130Z,102013.72
2022-12-03T03:52:26.799Z,102014.59
2022-12-03T03:54:53.977Z,102013.78
2022-12-03T03:57:21.415Z,102011.09
2022-12-03T03:59:48.733Z,102009.47
2022-12-03T04:02:24.963Z,102010.50
2022-12-03T04:04:52.794Z,102006.09
2022-12-03T04:07:20.306Z,102005.22
2022-12-03T04:09:47.549Z,102005.22
2022-12-03T04:12:34.669Z,102006.19
2022-12-03T04:15:02.173Z,102007.88
2022-12-03T04:17:29.437Z,102011.38
2022-12-03T04:19:57.371Z,102007.00
2022-12-03T04:22:40.442Z,102015.69
2022-12-03T04:25:28.702Z,102006.94
2022-12-03T04:28:14.620Z,102006.03
2022-12-03T04:30:41.823Z,102007.75
2022-12-03T04:33:28.382Z,102006.03
2022-12-03T04:35:55.378Z,102007.81
2022-12-03T04:38:22.825Z,102007.75
2022-12-03T04:41:03.854Z,102005.16
2022-12-03T04:43:34.592Z,101998.16
2022-12-03T04:46:02.741Z,102008.56
2022-12-03T04:48:30.064Z,102003.31
2022-12-03T04:50:57.657Z,102014.66
2022-12-03T04:53:24.692Z,102005.97
2022-12-03T04:55:53.006Z,102004.13
2022-12-03T04:58:20.229Z,102006.63
2022-12-03T05:00:47.402Z,101997.09
2022-12-03T05:03:14.414Z,102001.41
2022-12-03T05:05:41.379Z,102002.25
2022-12-03T05:08:08.785Z,101992.66
2022-12-03T05:10:36.149Z,101993.56
2022-12-03T05:13:03.110Z,101990.06
2022-12-03T05:15:30.030Z,101992.66
2022-12-03T05:17:57.178Z,101989.16
2022-12-03T05:20:44.738Z,101995.25
2022-12-03T05:23:16.803Z,101987.47
2022-12-03T05:25:43.937Z,101994.44
2022-12-03T05:28:10.985Z,101987.63
2022-12-03T05:30:38.230Z,101974.44
2022-12-03T05:33:05.406Z,101979.59
2022-12-03T05:35:32.591Z,101978.69
2022-12-03T05:38:00.605Z,101985.59
2022-12-03T05:40:28.755Z,101979.59
2022-12-03T05:43:01.251Z,101979.44
2022-12-03T05:45:36.924Z,101989.94
2022-12-03T05:48:09.517Z,101983.75
2022-12-03T05:50:39.458Z,101975.03
2022-12-03T05:53:06.554Z,101978.47
2022-12-03T05:55:33.688Z,101972.38
2022-12-03T05:58:01.021Z,101970.66
2022-12-03T06:00:32.428Z,101971.66
2022-12-03T06:03:00.229Z,101968.16
2022-12-03T06:05:27.401Z,101970.75
2022-12-03T06:07:54.745Z,101966.34
2022-12-03T06:10:25.367Z,101962.03
2022-12-03T06:12:53.239Z,101964.72
2022-12-03T06:15:21.165Z,101961.13
2022-12-03T06:17:48.498Z,101959.38
2022-12-03T06:20:19.522Z,101957.66
2022-12-03T06:22:47.429Z,101961.25
2022-12-03T06:25:16.324Z,101967.34
2022-12-03T06:27:43.959Z,101964.81
2022-12-03T06:30:14.441Z,101962.13
2022-12-03T06:32:45.592Z,101962.13
2022-12-03T06:35:12.659Z,101971.66
2022-12-03T06:37:39.819Z,101959.44
2022-12-03T06:40:08.004Z,101964.72
2022-12-03T06:42:35.085Z,101968.94
2022-12-03T06:45:02.234Z,101969.13
2022-12-03T06:47:29.706Z,101962.19
2022-12-03T06:49:56.898Z,101963.09
2022-12-03T06:52:24.189Z,101956.94
2022-12-03T06:54:51.693Z,101956.81
2022-12-03T06:57:19.192Z,101961.97
2022-12-03T06:59:46.490Z,101961.97
2022-12-03T07:02:13.653Z,101965.56
2022-12-03T07:04:46.062Z,101966.44
2022-12-03T07:07:14.058Z,101960.41
2022-12-03T07:09:41.236Z,101967.22
2022-12-03T07:12:09.414Z,101960.34
2022-12-03T07:14:36.662Z,101969.13
2022-12-03T07:17:03.869Z,101964.81
2022-12-03T07:19:33.073Z,101967.47
2022-12-03T07:22:01.033Z,101964.81
2022-12-03T07:24:28.753Z,101968.34
2022-12-03T07:26:55.862Z,101976.28
2022-12-03T07:29:23.542Z,101971.91
2022-12-03T07:31:50.890Z,101959.72
2022-12-03T07:34:18.298Z,101962.41
2022-12-03T07:36:45.611Z,101958.09
2022-12-03T07:39:13.954Z,101956.47
2022-12-03T07:41:41.202Z,101956.53
2022-12-03T07:44:14.340Z,101955.84
2022-12-03T07:46:43.157Z,101952.34
2022-12-03T07:49:12.143Z,101948.94
2022-12-03T07:51:43.255Z,101952.59
2022-12-03T07:54:10.236Z,101954.38
2022-12-03T07:56:37.633Z,101960.53
2022-12-03T07:59:04.905Z,101960.59
2022-12-03T08:01:32.011Z,101958.88
2022-12-03T08:03:59.103Z,101963.28
2022-12-03T08:06:26.093Z,101969.38
2022-12-03T08:08:53.068Z,101966.78
2022-12-03T08:11:20.324Z,101969.44
2022-12-03T08:13:47.467Z,101967.81
2022-12-03T08:16:19.222Z,101967.94
2022-12-03T08:18:48.485Z,101965.50
2022-12-03T08:21:19.612Z,101970.78
2022-12-03T08:23:46.899Z,101979.47
2022-12-03T08:26:28.027Z,101980.34
2022-12-03T08:28:55.393Z,101977.81
2022-12-03T08:31:32.284Z,101970.00
2022-12-03T08:34:20.216Z,101977.09
2022-12-03T08:36:51.057Z,101974.56
2022-12-03T08:39:29.857Z,101983.19
2022-12-03T08:42:42.023Z,101972.78
2022-12-03T08:45:40.444Z,101973.59
2022-12-03T08:48:32.734Z,101969.19
2022-12-03T08:51:19.072Z,101979.41
2022-12-03T08:54:01.734Z,101978.28
2022-12-03T08:56:33.512Z,101980.75
2022-12-03T08:59:32.326Z,101989.44
2022-12-03T09:01:59.945Z,101981.56
2022-12-03T09:04:29.718Z,101986.78
2022-12-03T09:06:58.011Z,101990.22
2022-12-03T09:09:25.610Z,101991.09
2022-12-03T09:11:53.941Z,101984.19
2022-12-03T09:14:23.599Z,101982.41
2022-12-03T09:16:56.670Z,101984.13
2022-12-03T09:19:26.974Z,101991.09
2022-12-03T09:21:55.120Z,101980.63
2022-12-03T09:24:22.517Z,101982.41
2022-12-03T09:26:50.054Z,101978.97
2022-12-03T09:29:17.272Z,101983.34
2022-12-03T09:31:44.682Z,101984.19
2022-12-03T09:34:11.972Z,101978.22
2022-12-03T09:36:39.010Z,101979.34
2022-12-03T09:39:06.554Z,101980.28
2022-12-03T09:41:33.664Z,101981.25
2022-12-03T09:44:04.290Z,101971.72
2022-12-03T09:46:33.779Z,101970.06
2022-12-03T09:49:02.349Z,101971.13
2022-12-03T09:51:36.266Z,101964.28
2022-12-03T09:54:06.114Z,101968.72
2022-12-03T09:56:38.584Z,101965.16
2022-12-03T09:59:16.274Z,101964.41
2022-12-03T10:01:44.319Z,101964.50
2022-12-03T10:04:11.617Z,101955.63
2022-12-03T10:06:44.113Z,101963.44
2022-12-03T10:09:25.468Z,101955.69
2022-12-03T10:11:52.597Z,101954.81
2022-12-03T10:14:20.703Z,101950.50
2022-12-03T10:16:48.286Z,101944.50
2022-12-03T10:19:35.779Z,101945.38
2022-12-03T10:22:02.804Z,101937.56
2022-12-03T10:24:34.824Z,101936.75
2022-12-03T10:27:29.468Z,101939.19
2022-12-03T10:30:03.114Z,101931.38
2022-12-03T10:32:50.912Z,101934.16
2022-12-03T10:35:21.418Z,101923.78
2022-12-03T10:38:05.574Z,101911.72
2022-12-03T10:40:35.827Z,101908.28
2022-12-03T10:43:24.055Z,101910.22
2022-12-03T10:46:04.495Z,101906.88
2022-12-03T10:48:31.877Z,101899.19
2022-12-03T10:51:03.705Z,101901.94
2022-12-03T10:53:34.224Z,101894.31
2022-12-03T10:56:06.492Z,101898.00
2022-12-03T10:58:40.052Z,101893.16
2022-12-03T11:01:20.408Z,101892.03
2022-12-03T11:03:48.316Z,101887.88
2022-12-03T11:06:19.801Z,101888.22
2022-12-03T11:08:57.844Z,101883.84
2022-12-03T11:11:31.036Z,101893.16
2022-12-03T11:14:04.219Z,101891.44
2022-12-03T11:16:40.569Z,101883.63
2022-12-03T11:19:13.475Z,101878.34
2022-12-03T11:22:06.499Z,101876.69
2022-12-03T11:24:37.048Z,101867.25
2022-12-03T11:27:04.101Z,101870.88
2022-12-03T11:29:49.152Z,101873.84
2022-12-03T11:33:00.414Z,101869.88
2022-12-03T11:35:36.713Z,101873.19
2022-12-03T11:38:38.016Z,101864.34
2022-12-03T11:41:12.270Z,101859.72
2022-12-03T11:43:56.868Z,101852.47
2022-12-03T11:46:38.776Z,101850.75
2022-12-03T11:49:34.617Z,101852.56
2022-12-03T11:52:17.966Z,101850.03
2022-12-03T11:54:48.166Z,101843.81
2022-12-03T11:57:43.550Z,101854.34
2022-12-03T12:00:21.037Z,101847.63
2022-12-03T12:02:49.288Z,101853.03
2022-12-03T12:05:26.051Z,101843.38
2022-12-03T12:07:54.152Z,101838.00
2022-12-03T12:10:47.080Z,101831.06
2022-12-03T12:13:35.899Z,101836.44
2022-12-03T12:16:06.492Z,101834.13
2022-12-03T12:18:45.134Z,101827.47
2022-12-03T12:21:48.155Z,101821.81
2022-12-03T12:24:40.677Z,101815.34
2022-12-03T12:27:12.238Z,101804.41
2022-12-03T12:29:42.207Z,101804.81
2022-12-03T12:32:09.232Z,101799.88
2022-12-03T12:34:47.598Z,101795.63
2022-12-03T12:37:20.925Z,101797.41
2022-12-03T12:39:48.970Z,101788.66
2022-12-03T12:42:28.661Z,101796.16
2022-12-03T12:45:26.778Z,101794.91
2022-12-03T12:48:17.029Z,101790.19
2022-12-03T12:50:54.471Z,101790.91
2022-12-03T12:53:34.007Z,101785.69
2022-12-03T12:56:09.366Z,101787.34
2022-12-03T12:58:38.630Z,101785.50
2022-12-03T13:01:12.588Z,101782.72
2022-12-03T13:03:40.119Z,101782.50
2022-12-03T13:06:12.526Z,101768.47
2022-12-03T13:08:47.411Z,101778.69
2022-12-03T13:11:42.059Z,101773.44
2022-12-03T13:14:21.953Z,101772.38
2022-12-03T13:16:55.230Z,101767.16
2022-12-03T13:19:43.312Z,101775.78
2022-12-03T13:22:19.363Z,101764.28
2022-12-03T13:24:52.797Z,101766.91
2022-12-03T13:27:19.960Z,101767.91
2022-12-03T13:30:13.722Z,101766.28
2022-12-03T13:32:42.594Z,101764.47
2022-12-03T13:35:31.702Z,101767.97
2022-12-03T13:37:59.502Z,101773.25
2022-12-03T13:40:30.935Z,101763.97
2022-12-03T13:42:59.655Z,101760.09
2022-12-03T13:45:37.531Z,101758.69
2022-12-03T13:48:27.329Z,101752.06
2022-12-03T13:50:54.799Z,101741.81
2022-12-03T13:53:37.795Z,101755.09
2022-12-03T13:56:32.962Z,101757.69
2022-12-03T13:59:01.193Z,101750.50
2022-12-03T14:01:29.364Z,101749.63
2022-12-03T14:03:56.867Z,101752.13
2022-12-03T14:06:24.021Z,101746.72
2022-12-03T14:08:51.542Z,101746.50
2022-12-03T14:11:37.589Z,101741.81
2022-12-03T14:14:04.656Z,101735.50
2022-12-03T14:16:32.020Z,101742.19
2022-12-03T14:19:16.957Z,101740.22
2022-12-03T14:21:44.129Z,101730.50
2022-12-03T14:24:11.080Z,101734.00
2022-12-03T14:26:38.244Z,101732.22
2022-12-03T14:29:08.780Z,101737.41
2022-12-03T14:31:36.424Z,101733.88
2022-12-03T14:34:03.609Z,101732.94
2022-12-03T14:36:30.613Z,101730.31
2022-12-03T14:38:57.628Z,101735.38
2022-12-03T14:41:43.348Z,101730.81
2022-12-03T14:44:10.326Z,101726.31
2022-12-03T14:46:37.482Z,101724.47
2022-12-03T14:49:04.630Z,101717.41
2022-12-03T14:51:31.801Z,101726.88
2022-12-03T14:53:59.089Z,101727.59
2022-12-03T14:56:26.348Z,101732.59
2022-12-03T14:58:53.591Z,101730.59
2022-12-03T15:01:20.776Z,101732.31
2022-12-03T15:03:47.923Z,101728.91
2022-12-03T15:06:15.061Z,101719.25
2022-12-03T15:08:42.140Z,101722.72
2022-12-03T15:11:09.386Z,101721.72
2022-12-03T15:13:36.633Z,101723.28
2022-12-03T15:16:04.207Z,101727.50
2022-12-03T15:18:31.777Z,101721.34
2022-12-03T15:20:58.763Z,101722.22
2022-12-03T15:23:26.208Z,101720.38
2022-12-03T15:25:53.519Z,101715.84
2022-12-03T15:28:21.783Z,101714.91
2022-12-03T15:30:50.470Z,101719.22
2022-12-03T15:33:18.019Z,101721.81
2022-12-03T15:35:45.312Z,101721.78
2022-12-03T15:38:13.197Z,101727.03
2022-12-03T15:40:40.550Z,101724.44
2022-12-03T15:43:08.629Z,101725.16
2022-12-03T15:45:36.326Z,101737.28
2022-12-03T15:48:04.002Z,101729.31
2022-12-03T15:50:34.533Z,101726.69
2022-12-03T15:53:04.023Z,101726.63
2022-12-03T15:55:31.312Z,101724.84
2022-12-03T15:57:58.420Z,101720.53
2022-12-03T16:00:25.723Z,101720.53
2022-12-03T16:02:53.327Z,101723.94
2022-12-03T16:05:20.683Z,101713.63
2022-12-03T16:07:48.069Z,101718.84
2022-12-03T16:10:17.592Z,101722.16
2022-12-03T16:12:44.758Z,101722.09
2022-12-03T16:15:11.910Z,101716.72
2022-12-03T16:17:39.014Z,101719.31
2022-12-03T16:20:07.390Z,101715.72
2022-12-03T16:22:34.551Z,101707.75
2022-12-03T16:25:03.288Z,101717.25
2022-12-03T16:27:30.353Z,101710.97
2022-12-03T16:29:57.914Z,101708.28
2022-12-03T16:32:25.171Z,101716.03
2022-12-03T16:34:52.223Z,101718.56
2022-12-03T16:37:19.239Z,101721.16
2022-12-03T16:39:46.463Z,101719.47
2022-12-03T16:42:17.203Z,101713.44
2022-12-03T16:45:11.552Z,101709.06
2022-12-03T16:47:38.978Z,101709.88
2022-12-03T16:50:11.561Z,101703.63
2022-12-03T16:52:41.641Z,101701.94
2022-12-03T16:55:09.606Z,101700.97
2022-12-03T16:57:36.782Z,101708.78
2022-12-03T17:00:05.892Z,101701.88
2022-12-03T17:02:32.994Z,101708.84
2022-12-03T17:05:00.096Z,101705.47
2022-12-03T17:07:27.248Z,101707.34
2022-12-03T17:09:54.709Z,101702.19
2022-12-03T17:12:21.941Z,101703.16
2022-12-03T17:14:49.007Z,101699.72
2022-12-03T17:17:16.193Z,101703.97
2022-12-03T17:19:43.388Z,101699.59
2022-12-03T17:22:10.483Z,101694.41
2022-12-03T17:24:37.515Z,101695.28
2022-12-03T17:27:06.305Z,101702.31
2022-12-03T17:29:33.741Z,101692.81
2022-12-03T17:32:01.143Z,101694.47
2022-12-03T17:34:28.436Z,101693.50
2022-12-03T17:36:55.567Z,101688.31
2022-12-03T17:39:22.836Z,101686.53
2022-12-03T17:41:49.886Z,101681.19
2022-12-03T17:44:20.970Z,101678.69
2022-12-03T17:46:48.541Z,101679.47
2022-12-03T17:49:15.676Z,101673.38
2022-12-03T17:51:42.896Z,101679.34
2022-12-03T17:54:09.902Z,101674.97
2022-12-03T17:56:39.123Z,101682.78
2022-12-03T17:59:06.402Z,101682.78
2022-12-03T18:01:33.727Z,101683.59
2022-12-03T18:04:01.255Z,101685.31
2022-12-03T18:06:28.477Z,101684.38
2022-12-03T18:08:56.285Z,101678.25
2022-12-03T18:11:23.740Z,101677.34
2022-12-03T18:13:50.929Z,101680.03
2022-12-03T18:16:18.103Z,101679.88
2022-12-03T18:18:45.238Z,101678.13
2022-12-03T18:21:13.462Z,101685.09
2022-12-03T18:23:42.414Z,101675.50
2022-12-03T18:26:10.817Z,101679.78
2022-12-03T18:28:39.050Z,101684.06
2022-12-03T18:31:18.534Z,101684.97
2022-12-03T18:33:46.593Z,101688.41
2022-12-03T18:36:29.812Z,101683.25
2022-12-03T18:38:58.525Z,101673.69
2022-12-03T18:41:25.884Z,101677.09
2022-12-03T18:43:53.091Z,101677.09
2022-12-03T18:49:10.337Z,101674.50
2022-12-03T18:51:37.427Z,101676.13
2022-12-03T18:54:12.341Z,101670.91
2022-12-03T18:56:42.456Z,101670.03
2022-12-03T18:59:11.159Z,101666.50
2022-12-03T19:01:38.437Z,101663.81
2022-12-03T19:04:05.617Z,101669.03
2022-12-03T19:06:32.663Z,101664.66
2022-12-03T19:08:59.983Z,101662.13
2022-12-03T19:11:27.363Z,101660.47
2022-12-03T19:13:54.696Z,101655.31
2022-12-03T19:16:22.040Z,101657.94
2022-12-03T19:18:49.210Z,101662.41
2022-12-03T19:21:17.245Z,101658.97
2022-12-03T19:24:04.308Z,101654.59
2022-12-03T19:26:31.883Z,101661.56
2022-12-03T19:28:59.419Z,101659.72
2022-12-03T19:31:26.757Z,101664.00
2022-12-03T19:33:54.583Z,101667.53
2022-12-03T19:36:25.088Z,101669.22
2022-12-03T19:38:57.424Z,101664.94
2022-12-03T19:41:28.072Z,101650.13
2022-12-03T19:43:56.962Z,101657.88
2022-12-03T19:46:28.736Z,101654.25
2022-12-03T19:48:56.287Z,101658.50
2022-12-03T19:51:34.660Z,101655.69
2022-12-03T19:54:06.831Z,101650.34
2022-12-03T19:56:34.895Z,101646.72
2022-12-03T19:59:03.600Z,101653.63
2022-12-03T20:01:34.228Z,101657.94
2022-12-03T20:04:03.404Z,101652.78
2022-12-03T20:06:34.608Z,101655.47
2022-12-03T20:09:13.555Z,101651.19
2022-12-03T20:11:41.866Z,101654.50
2022-12-03T20:14:14.834Z,101650.13
2022-12-03T20:16:43.128Z,101648.25
2022-12-03T20:19:14.133Z,101648.06
2022-12-03T20:21:43.388Z,101651.44
2022-12-03T20:24:15.861Z,101646.91
2022-12-03T20:26:43.944Z,101657.09
2022-12-03T20:29:17.996Z,101650.78
2022-12-03T20:31:45.481Z,101645.47
2022-12-03T20:34:15.447Z,101645.41
2022-12-03T20:36:44.604Z,101640.88
2022-12-03T20:39:11.836Z,101644.22
2022-12-03T20:41:39.513Z,101646.88
2022-12-03T20:44:08.100Z,101644.28
2022-12-03T20:46:36.301Z,101643.34
2022-12-03T20:49:05.171Z,101636.19
2022-12-03T20:51:35.876Z,101647.28
2022-12-03T20:54:06.353Z,101644.63
2022-12-03T20:56:39.560Z,101638.47
2022-12-03T20:59:11.909Z,101637.50
2022-12-03T21:01:44.370Z,101639.94
2022-12-03T21:04:18.957Z,101634.63
2022-12-03T21:06:46.594Z,101624.13
2022-12-03T21:09:17.577Z,101631.94
2022-12-03T21:11:45.440Z,101626.59
2022-12-03T21:14:13.019Z,101636.94
2022-12-03T21:19:37.085Z,101628.91
2022-12-03T21:22:10.923Z,101626.31
2022-12-03T21:24:38.658Z,101622.88
2022-12-03T21:27:06.169Z,101626.31
2022-12-03T21:29:33.549Z,101621.03
2022-12-03T21:32:01.414Z,101613.31
2022-12-03T21:34:34.370Z,101616.03
2022-12-03T21:37:03.487Z,101619.56
2022-12-03T21:39:31.047Z,101613.56
2022-12-03T21:42:18.976Z,101612.81
2022-12-03T21:44:45.925Z,101605.97
2022-12-03T21:47:14.587Z,101603.38
2022-12-03T21:49:42.595Z,101609.31
2022-12-03T21:52:21.385Z,101603.31
2022-12-03T21:54:51.967Z,101611.97
2022-12-03T21:57:20.168Z,101614.56
2022-12-03T21:59:47.766Z,101614.75
2022-12-03T22:02:15.183Z,101618.22
2022-12-03T22:04:44.354Z,101614.94
2022-12-03T22:07:16.934Z,101610.63
2022-12-03T22:09:45.030Z,101618.59
2022-12-03T22:12:12.800Z,101626.50
2022-12-03T22:14:40.117Z,101629.16
2022-12-03T22:17:07.829Z,101622.34
2022-12-03T22:19:35.379Z,101619.06
2022-12-03T22:22:02.698Z,101614.00
2022-12-03T22:24:30.527Z,101610.59
2022-12-03T22:26:58.194Z,101599.31
2022-12-03T22:29:25.704Z,101605.38
2022-12-03T22:31:53.333Z,101604.44
2022-12-03T22:34:20.630Z,101607.84
2022-12-03T22:36:48.234Z,101603.63
2022-12-03T22:39:15.541Z,101602.72
2022-12-03T22:41:43.149Z,101593.97
2022-12-03T22:44:10.591Z,101597.47
2022-12-03T22:46:40.155Z,101603.56
2022-12-03T22:49:07.884Z,101594.88
2022-12-03T22:51:38.002Z,101602.66
2022-12-03T22:54:06.118Z,101600.94
2022-12-03T22:56:33.828Z,101590.63
2022-12-03T22:59:01.217Z,101594.09
2022-12-03T23:01:35.647Z,101587.22
2022-12-03T23:04:03.972Z,101588.09
2022-12-03T23:06:33.796Z,101589.81
2022-12-03T23:09:03.946Z,101587.22
2022-12-03T23:11:31.208Z,101588.09
2022-12-03T23:14:01.761Z,101588.91
2022-12-03T23:16:32.922Z,101587.22
2022-12-03T23:19:02.683Z,101589.91
2022-12-03T23:21:34.166Z,101583.00
2022-12-03T23:24:04.491Z,101583.94
2022-12-03T23:26:36.748Z,101585.72
2022-12-03T23:29:06.250Z,101581.47
2022-12-03T23:31:34.596Z,101581.47
2022-12-03T23:34:02.551Z,101575.31
2022-12-03T23:36:32.383Z,101581.47
2022-12-03T23:39:02.925Z,101573.63
2022-12-03T23:41:29.989Z,101577.09
2022-12-03T23:43:57.759Z,101577.16
2022-12-03T23:46:28.896Z,101578.81
2022-12-03T23:48:58.740Z,101574.44
2022-12-03T23:51:26.729Z,101571.84
2022-12-03T23:53:55.770Z,101571.91
2022-12-03T23:56:30.821Z,101570.19
2022-12-03T23:58:58.905Z,101561.44
